createdAt,value
2018-03-15T00:00:12.301Z,84.89
2018-03-15T00:02:42.472Z,84.98
2018-03-15T00:05:11.875Z,85.06
2018-03-15T00:07:41.411Z,84.57
2018-03-15T00:10:11.355Z,84.82
2018-03-15T00:12:40.563Z,84.66
2018-03-15T00:15:09.886Z,84.90
2018-03-15T00:17:39.124Z,84.73
2018-03-15T00:20:09.099Z,85.00
2018-03-15T00:22:38.314Z,85.18
2018-03-15T00:25:08.298Z,85.11
2018-03-15T00:27:37.526Z,85.17
2018-03-15T00:30:07.500Z,85.41
2018-03-15T00:32:36.747Z,85.58
2018-03-15T00:35:06.727Z,85.69
2018-03-15T00:37:35.926Z,85.64
2018-03-15T00:40:05.150Z,85.50
2018-03-15T00:42:34.390Z,85.25
2018-03-15T00:45:03.584Z,85.29
2018-03-15T00:47:32.853Z,85.50
2018-03-15T00:50:02.415Z,85.39
2018-03-15T00:52:31.631Z,85.60
2018-03-15T00:55:02.336Z,86.05
2018-03-15T00:57:31.527Z,86.22
2018-03-15T01:00:00.736Z,86.22
2018-03-15T01:02:30.107Z,86.49
2018-03-15T01:04:59.306Z,86.92
2018-03-15T01:07:28.524Z,87.23
2018-03-15T01:09:57.766Z,87.47
2018-03-15T01:12:27.107Z,87.37
2018-03-15T01:14:56.359Z,87.41
2018-03-15T01:17:25.619Z,87.56
2018-03-15T01:19:54.866Z,87.56
2018-03-15T01:22:24.871Z,87.55
2018-03-15T01:24:54.410Z,86.90
2018-03-15T01:27:23.621Z,86.88
2018-03-15T01:29:52.826Z,86.86
2018-03-15T01:32:22.175Z,86.95
2018-03-15T01:34:51.359Z,86.88
2018-03-15T01:37:20.604Z,87.00
2018-03-15T01:39:49.796Z,86.58
2018-03-15T01:42:19.005Z,86.61
2018-03-15T01:44:48.196Z,86.58
2018-03-15T01:47:17.592Z,86.73
2018-03-15T01:49:46.812Z,86.70
2018-03-15T01:52:16.126Z,86.98
2018-03-15T01:54:45.327Z,87.26
2018-03-15T01:57:14.543Z,87.29
2018-03-15T01:59:45.249Z,87.25
2018-03-15T02:02:14.591Z,87.17
2018-03-15T02:04:44.582Z,86.97
2018-03-15T02:07:13.766Z,87.21
2018-03-15T02:09:42.975Z,87.20
2018-03-15T02:12:12.492Z,87.09
2018-03-15T02:14:41.772Z,87.27
2018-03-15T02:17:10.983Z,87.10
2018-03-15T02:19:40.312Z,86.76
2018-03-15T02:22:09.491Z,86.88
2018-03-15T02:24:38.695Z,86.74
2018-03-15T02:27:08.710Z,86.64
2018-03-15T02:29:38.817Z,86.53
2018-03-15T02:32:08.044Z,86.52
2018-03-15T02:34:37.265Z,86.72
2018-03-15T02:37:06.599Z,86.85
2018-03-15T02:39:36.052Z,87.07
2018-03-15T02:42:05.268Z,87.06
2018-03-15T02:44:34.451Z,87.27
2018-03-15T02:47:03.631Z,87.53
2018-03-15T02:49:32.888Z,87.65
2018-03-15T02:52:02.086Z,87.72
2018-03-15T02:54:31.294Z,87.68
2018-03-15T02:57:02.020Z,87.71
2018-03-15T02:59:31.502Z,87.73
2018-03-15T03:02:00.851Z,87.78
2018-03-15T03:04:30.949Z,87.67
2018-03-15T03:07:01.034Z,87.71
2018-03-15T03:09:30.364Z,87.40
2018-03-15T03:11:59.594Z,87.21
2018-03-15T03:14:29.568Z,87.08
2018-03-15T03:16:58.900Z,86.92
2018-03-15T03:19:28.539Z,86.63
2018-03-15T03:21:57.851Z,86.50
2018-03-15T03:24:27.028Z,86.52
2018-03-15T03:26:57.019Z,86.42
2018-03-15T03:29:26.219Z,86.40
2018-03-15T03:31:55.496Z,86.23
2018-03-15T03:34:24.692Z,85.75
2018-03-15T03:36:53.913Z,85.25
2018-03-15T03:39:23.122Z,84.60
2018-03-15T03:41:52.349Z,83.75
2018-03-15T03:44:22.423Z,82.87
2018-03-15T03:46:51.641Z,82.96
2018-03-15T03:49:20.854Z,83.18
2018-03-15T03:51:50.065Z,83.53
2018-03-15T03:54:19.296Z,83.73
2018-03-15T03:56:48.507Z,84.05
2018-03-15T03:59:17.825Z,84.46
2018-03-15T04:01:47.030Z,84.82
2018-03-15T04:04:16.664Z,85.13
2018-03-15T04:06:45.839Z,85.45
2018-03-15T04:09:15.032Z,85.67
2018-03-15T04:11:45.002Z,85.96
2018-03-15T04:14:14.196Z,86.07
2018-03-15T04:16:43.416Z,86.30
2018-03-15T04:19:12.637Z,86.40
2018-03-15T04:21:42.742Z,86.58
2018-03-15T04:24:12.107Z,86.59
2018-03-15T04:26:41.297Z,86.31
2018-03-15T04:29:10.519Z,86.49
2018-03-15T04:31:39.714Z,86.34
2018-03-15T04:34:08.899Z,85.90
2018-03-15T04:36:38.134Z,85.52
2018-03-15T04:39:08.111Z,85.55
2018-03-15T04:41:37.319Z,85.34
2018-03-15T04:44:06.575Z,85.27
2018-03-15T04:46:36.775Z,85.13
2018-03-15T04:49:06.079Z,85.00
2018-03-15T04:51:35.314Z,84.79
2018-03-15T04:54:04.506Z,84.36
2018-03-15T04:56:33.731Z,84.32
2018-03-15T04:59:02.922Z,84.34
2018-03-15T05:01:32.240Z,84.15
2018-03-15T05:04:01.459Z,83.74
2018-03-15T05:06:31.432Z,83.54
2018-03-15T05:09:00.769Z,83.37
2018-03-15T05:11:30.006Z,83.34
2018-03-15T05:13:59.194Z,83.23
2018-03-15T05:16:28.467Z,82.79
2018-03-15T05:18:58.612Z,82.98
2018-03-15T05:21:27.866Z,83.12
2018-03-15T05:23:57.051Z,83.09
2018-03-15T05:26:26.404Z,82.98
2018-03-15T05:28:55.609Z,83.02
2018-03-15T05:31:24.823Z,83.18
2018-03-15T05:33:54.130Z,83.11
2018-03-15T05:36:23.318Z,82.99
2018-03-15T05:38:54.367Z,83.03
2018-03-15T05:41:23.589Z,83.01
2018-03-15T05:43:52.796Z,82.84
2018-03-15T05:46:22.081Z,82.75
2018-03-15T05:48:51.310Z,82.86
2018-03-15T05:51:20.598Z,83.02
2018-03-15T05:53:50.306Z,83.24
2018-03-15T05:56:19.470Z,83.30
2018-03-15T05:58:48.904Z,83.34
2018-03-15T06:01:18.883Z,83.53
2018-03-15T06:03:48.107Z,83.69
2018-03-15T06:06:17.310Z,83.85
2018-03-15T06:08:46.794Z,83.85
2018-03-15T06:11:16.170Z,84.17
2018-03-15T06:13:45.415Z,84.37
2018-03-15T06:16:15.374Z,84.29
2018-03-15T06:18:44.632Z,84.41
2018-03-15T06:21:14.799Z,84.56
2018-03-15T06:23:44.032Z,84.58
2018-03-15T06:26:13.362Z,84.71
2018-03-15T06:28:43.346Z,84.67
2018-03-15T06:31:12.657Z,84.72
2018-03-15T06:33:41.787Z,84.58
2018-03-15T06:36:11.039Z,84.83
2018-03-15T06:38:40.258Z,84.64
2018-03-15T06:41:09.459Z,84.51
2018-03-15T06:43:39.436Z,84.34
2018-03-15T06:46:09.119Z,84.07
2018-03-15T06:48:38.530Z,83.72
2018-03-15T06:51:07.756Z,83.60
2018-03-15T06:53:36.918Z,83.26
2018-03-15T06:56:06.109Z,83.12
2018-03-15T06:58:36.031Z,82.73
2018-03-15T07:01:05.258Z,82.29
2018-03-15T07:03:34.460Z,81.77
2018-03-15T07:06:03.714Z,81.50
2018-03-15T07:08:32.930Z,81.27
2018-03-15T07:11:02.217Z,81.09
2018-03-15T07:13:31.411Z,80.72
2018-03-15T07:16:00.811Z,80.53
2018-03-15T07:18:30.009Z,80.18
2018-03-15T07:20:59.221Z,79.93
2018-03-15T07:23:28.566Z,79.90
2018-03-15T07:25:57.774Z,79.92
2018-03-15T07:28:27.777Z,79.66
2018-03-15T07:30:56.963Z,79.41
2018-03-15T07:33:26.282Z,79.17
2018-03-15T07:35:55.482Z,78.96
2018-03-15T07:38:24.686Z,78.84
2018-03-15T07:40:53.886Z,78.61
2018-03-15T07:43:23.855Z,77.99
2018-03-15T07:45:53.065Z,77.78
2018-03-15T07:48:22.285Z,78.15
2018-03-15T07:50:51.535Z,77.61
2018-03-15T07:53:21.574Z,77.64
2018-03-15T07:55:51.023Z,77.70
2018-03-15T07:58:20.457Z,77.64
2018-03-15T08:00:49.681Z,77.22
2018-03-15T08:03:18.860Z,77.11
2018-03-15T08:05:48.087Z,77.11
2018-03-15T08:08:17.275Z,76.78
2018-03-15T08:10:46.481Z,77.16
2018-03-15T08:13:15.699Z,76.23
2018-03-15T08:15:44.894Z,76.54
2018-03-15T08:18:14.915Z,76.64
2018-03-15T08:20:44.153Z,76.04
2018-03-15T08:23:13.345Z,76.34
2018-03-15T08:25:42.566Z,75.81
2018-03-15T08:28:11.757Z,75.25
2018-03-15T08:30:40.987Z,74.86
2018-03-15T08:33:10.870Z,73.54
2018-03-15T08:35:40.092Z,73.68
2018-03-15T08:38:09.510Z,73.25
2018-03-15T08:40:39.502Z,73.43
2018-03-15T08:43:08.830Z,73.10
2018-03-15T08:45:38.157Z,72.65
2018-03-15T08:48:07.376Z,72.02
2018-03-15T08:50:36.708Z,72.43
2018-03-15T08:53:05.913Z,71.14
2018-03-15T08:55:35.150Z,69.73
2018-03-15T08:58:04.346Z,69.13
2018-03-15T09:00:33.601Z,68.92
2018-03-15T09:03:02.822Z,68.99
2018-03-15T09:05:32.803Z,69.28
2018-03-15T09:08:01.997Z,68.10
2018-03-15T09:10:31.321Z,67.15
2018-03-15T09:13:01.296Z,66.97
2018-03-15T09:15:30.612Z,66.74
2018-03-15T09:17:59.824Z,66.10
2018-03-15T09:20:29.243Z,65.97
2018-03-15T09:22:58.431Z,64.19
2018-03-15T09:25:27.783Z,63.73
2018-03-15T09:27:57.009Z,63.36
2018-03-15T09:30:26.198Z,60.74
2018-03-15T09:32:55.411Z,57.67
2018-03-15T09:35:24.598Z,56.24
2018-03-15T09:37:53.858Z,56.45
2018-03-15T09:40:23.077Z,56.11
2018-03-15T09:42:52.280Z,55.15
2018-03-15T09:45:21.535Z,54.79
2018-03-15T09:47:50.728Z,56.16
2018-03-15T09:50:19.954Z,54.84
2018-03-15T09:52:49.351Z,53.88
2018-03-15T09:55:18.568Z,54.58
2018-03-15T09:57:47.773Z,52.62
2018-03-15T10:00:16.963Z,52.93
2018-03-15T10:02:46.184Z,52.77
2018-03-15T10:05:15.438Z,52.43
2018-03-15T10:07:44.755Z,52.52
2018-03-15T10:10:14.020Z,50.57
2018-03-15T10:12:43.228Z,50.73
2018-03-15T10:15:17.312Z,51.28
2018-03-15T10:17:47.299Z,50.18
2018-03-15T10:20:17.410Z,50.42
2018-03-15T10:22:46.689Z,50.07
2018-03-15T10:25:26.395Z,50.10
2018-03-15T10:27:45.124Z,48.80
2018-03-15T10:30:15.237Z,48.75
2018-03-15T10:32:45.216Z,48.95
2018-03-15T10:35:19.860Z,50.42
2018-03-15T10:37:49.059Z,48.83
2018-03-15T10:40:19.772Z,47.10
2018-03-15T10:42:49.059Z,48.08
2018-03-15T10:45:18.358Z,48.25
2018-03-15T10:47:48.303Z,48.45
2018-03-15T10:50:17.633Z,48.11
2018-03-15T10:52:46.915Z,48.42
2018-03-15T10:55:16.146Z,48.79
2018-03-15T10:57:46.211Z,47.51
2018-03-15T11:00:15.550Z,48.26
2018-03-15T11:02:47.445Z,47.91
2018-03-15T11:05:22.055Z,47.32
2018-03-15T11:07:56.651Z,46.82
2018-03-15T11:10:25.858Z,45.64
2018-03-15T11:12:55.826Z,46.74
2018-03-15T11:15:25.915Z,47.29
2018-03-15T11:17:55.120Z,45.88
2018-03-15T11:20:24.342Z,45.88
2018-03-15T11:22:53.603Z,45.40
2018-03-15T11:25:23.499Z,45.41
2018-03-15T11:27:53.200Z,43.49
2018-03-15T11:30:22.403Z,45.33
2018-03-15T11:32:51.616Z,44.05
2018-03-15T11:35:21.558Z,43.74
2018-03-15T11:37:50.792Z,44.62
2018-03-15T11:40:19.997Z,44.46
2018-03-15T11:42:49.219Z,44.76
2018-03-15T11:45:18.405Z,43.50
2018-03-15T11:47:48.408Z,45.16
2018-03-15T11:50:17.860Z,43.53
2018-03-15T11:52:47.057Z,44.63
2018-03-15T11:55:16.274Z,44.02
2018-03-15T11:57:45.492Z,41.99
2018-03-15T12:00:14.686Z,44.73
2018-03-15T12:02:43.915Z,43.36
2018-03-15T12:05:13.178Z,43.03
2018-03-15T12:07:42.374Z,42.17
2018-03-15T12:10:11.547Z,43.77
2018-03-15T12:12:40.770Z,43.83
2018-03-15T12:15:10.022Z,44.68
2018-03-15T12:17:39.240Z,44.34
2018-03-15T12:20:08.453Z,44.33
2018-03-15T12:22:37.682Z,44.29
2018-03-15T12:25:06.903Z,44.86
2018-03-15T12:27:36.871Z,43.42
2018-03-15T12:30:07.002Z,45.21
2018-03-15T12:32:36.147Z,43.38
2018-03-15T12:35:05.407Z,43.95
2018-03-15T12:37:34.634Z,43.81
2018-03-15T12:40:03.899Z,44.77
2018-03-15T12:42:33.196Z,46.22
2018-03-15T12:45:02.413Z,42.60
2018-03-15T12:47:31.604Z,42.17
2018-03-15T12:50:00.862Z,43.96
2018-03-15T12:52:30.262Z,44.18
2018-03-15T12:54:59.502Z,41.96
2018-03-15T12:57:29.507Z,44.35
2018-03-15T12:59:58.727Z,43.62
2018-03-15T13:02:27.910Z,42.95
2018-03-15T13:04:57.948Z,43.13
2018-03-15T13:07:27.912Z,42.58
2018-03-15T13:09:57.891Z,42.92
2018-03-15T13:12:27.878Z,40.41
2018-03-15T13:14:57.083Z,42.69
2018-03-15T13:17:26.279Z,42.84
2018-03-15T13:19:56.273Z,43.58
2018-03-15T13:22:25.511Z,43.10
2018-03-15T13:24:54.742Z,40.85
2018-03-15T13:27:23.934Z,41.80
2018-03-15T13:29:53.207Z,42.99
2018-03-15T13:32:22.432Z,42.62
2018-03-15T13:34:51.659Z,40.03
2018-03-15T13:37:20.873Z,40.52
2018-03-15T13:39:50.099Z,41.33
2018-03-15T13:42:19.371Z,42.07
2018-03-15T13:47:24.777Z,39.84
2018-03-15T13:49:54.003Z,41.64
2018-03-15T13:52:23.232Z,39.31
2018-03-15T13:54:52.448Z,40.01
2018-03-15T13:57:22.423Z,42.05
2018-03-15T13:59:51.619Z,42.33
2018-03-15T14:02:20.853Z,42.04
2018-03-15T14:04:50.039Z,42.67
2018-03-15T14:07:20.175Z,41.90
2018-03-15T14:09:49.422Z,41.76
2018-03-15T14:12:18.623Z,41.72
2018-03-15T14:14:48.050Z,41.37
2018-03-15T14:17:18.034Z,43.02
2018-03-15T14:19:47.278Z,41.96
2018-03-15T14:22:16.499Z,43.33
2018-03-15T14:24:45.755Z,43.83
2018-03-15T14:27:14.966Z,42.58
2018-03-15T14:29:44.926Z,42.84
2018-03-15T14:32:14.273Z,42.62
2018-03-15T14:34:43.604Z,43.73
2018-03-15T14:37:12.956Z,42.49
2018-03-15T14:39:42.210Z,41.96
2018-03-15T14:42:12.147Z,43.40
2018-03-15T14:44:41.446Z,42.68
2018-03-15T14:47:10.654Z,42.97
2018-03-15T14:49:39.931Z,43.70
2018-03-15T14:52:09.307Z,43.77
2018-03-15T14:54:38.572Z,43.15
2018-03-15T14:57:07.787Z,43.91
2018-03-15T14:59:37.849Z,43.81
2018-03-15T15:02:07.033Z,44.46
2018-03-15T15:04:36.261Z,43.77
2018-03-15T15:07:05.472Z,43.16
2018-03-15T15:09:34.810Z,43.38
2018-03-15T15:12:04.070Z,43.54
2018-03-15T15:14:33.305Z,44.38
2018-03-15T15:17:03.275Z,44.39
2018-03-15T15:19:32.582Z,45.53
2018-03-15T15:22:01.752Z,45.19
2018-03-15T15:24:30.969Z,46.05
2018-03-15T15:27:00.169Z,45.88
2018-03-15T15:29:29.529Z,46.53
2018-03-15T15:31:58.881Z,45.38
2018-03-15T15:34:28.090Z,45.29
2018-03-15T15:36:57.295Z,45.20
2018-03-15T15:39:27.319Z,44.83
2018-03-15T15:41:57.300Z,46.57
2018-03-15T15:44:26.519Z,47.28
2018-03-15T15:46:56.503Z,47.84
2018-03-15T15:49:25.882Z,48.33
2018-03-15T15:51:55.273Z,48.28
2018-03-15T15:54:24.537Z,49.04
2018-03-15T15:56:54.850Z,47.96
2018-03-15T15:59:24.915Z,48.95
2018-03-15T16:01:54.135Z,49.79
2018-03-15T16:04:23.410Z,50.45
2018-03-15T16:06:53.529Z,50.46
2018-03-15T16:09:22.746Z,51.28
2018-03-15T16:11:52.091Z,51.94
2018-03-15T16:14:22.085Z,51.53
2018-03-15T16:16:51.431Z,49.44
2018-03-15T16:19:20.771Z,48.69
2018-03-15T16:21:50.018Z,49.29
2018-03-15T16:24:19.978Z,48.29
2018-03-15T16:26:49.203Z,48.46
2018-03-15T16:29:18.560Z,50.27
2018-03-15T16:31:47.761Z,52.50
2018-03-15T16:34:16.985Z,53.72
2018-03-15T16:36:46.265Z,54.16
2018-03-15T16:39:15.478Z,54.77
2018-03-15T16:41:44.702Z,55.13
2018-03-15T16:44:13.930Z,54.43
2018-03-15T16:46:43.879Z,52.49
2018-03-15T16:49:13.128Z,51.30
2018-03-15T16:51:43.110Z,51.21
2018-03-15T16:54:12.360Z,52.33
2018-03-15T16:56:41.747Z,51.05
2018-03-15T16:59:11.890Z,52.16
2018-03-15T17:01:41.138Z,52.34
2018-03-15T17:04:11.858Z,51.73
2018-03-15T17:06:44.329Z,53.08
2018-03-15T17:09:15.642Z,54.34
2018-03-15T17:11:46.454Z,54.65
2018-03-15T17:14:16.445Z,56.07
2018-03-15T17:16:49.418Z,55.76
2018-03-15T17:19:21.076Z,56.04
2018-03-15T17:21:51.623Z,56.83
2018-03-15T17:24:21.648Z,57.11
2018-03-15T17:26:51.865Z,57.59
2018-03-15T17:29:21.166Z,58.04
2018-03-15T17:31:51.173Z,58.77
2018-03-15T17:34:20.377Z,59.05
2018-03-15T17:36:51.384Z,59.74
2018-03-15T17:39:21.106Z,59.91
2018-03-15T17:41:51.712Z,60.54
2018-03-15T17:44:22.379Z,61.02
2018-03-15T17:46:52.813Z,60.89
2018-03-15T17:49:23.239Z,61.18
2018-03-15T17:51:54.419Z,61.58
2018-03-15T17:54:24.100Z,61.82
2018-03-15T17:56:53.642Z,62.09
2018-03-15T17:59:23.188Z,62.06
2018-03-15T18:01:52.530Z,62.68
2018-03-15T18:04:21.987Z,62.31
2018-03-15T18:06:51.163Z,63.14
2018-03-15T18:09:20.403Z,62.99
2018-03-15T18:11:50.478Z,63.29
2018-03-15T18:14:19.726Z,63.32
2018-03-15T18:16:49.882Z,63.76
2018-03-15T18:19:19.115Z,63.91
2018-03-15T18:21:48.347Z,63.96
2018-03-15T18:24:17.581Z,64.15
2018-03-15T18:26:46.814Z,64.24
2018-03-15T18:29:16.044Z,64.53
2018-03-15T18:31:45.256Z,64.46
2018-03-15T18:34:14.472Z,64.91
2018-03-15T18:36:43.756Z,64.95
2018-03-15T18:39:13.177Z,65.13
2018-03-15T18:41:42.363Z,65.49
2018-03-15T18:44:11.604Z,65.34
2018-03-15T18:46:40.925Z,65.59
2018-03-15T18:49:10.134Z,65.56
2018-03-15T18:51:40.102Z,65.46
2018-03-15T18:54:10.935Z,65.42
2018-03-15T18:56:40.140Z,65.48
2018-03-15T18:59:09.542Z,65.78
2018-03-15T19:01:39.492Z,65.91
2018-03-15T19:04:08.672Z,66.35
2018-03-15T19:06:38.711Z,66.22
2018-03-15T19:09:07.935Z,66.60
2018-03-15T19:11:37.187Z,66.85
2018-03-15T19:14:07.154Z,67.05
2018-03-15T19:16:36.391Z,67.52
2018-03-15T19:19:07.154Z,68.01
2018-03-15T19:21:36.562Z,68.10
2018-03-15T19:24:05.781Z,68.34
2018-03-15T19:26:35.024Z,68.51
2018-03-15T19:29:04.235Z,68.77
2018-03-15T19:31:34.354Z,69.04
2018-03-15T19:34:03.569Z,69.48
2018-03-15T19:36:32.810Z,69.17
2018-03-15T19:39:02.028Z,69.35
2018-03-15T19:41:31.310Z,69.49
2018-03-15T19:44:00.522Z,69.83
2018-03-15T19:46:29.727Z,69.88
2018-03-15T19:48:59.927Z,69.81
2018-03-15T19:51:29.292Z,69.81
2018-03-15T19:53:58.512Z,69.85
2018-03-15T19:56:27.715Z,69.92
2018-03-15T19:58:56.938Z,69.95
2018-03-15T20:01:26.144Z,69.85
2018-03-15T20:03:55.440Z,69.78
2018-03-15T20:06:25.400Z,70.14
2018-03-15T20:08:54.634Z,70.01
2018-03-15T20:11:23.858Z,70.12
2018-03-15T20:13:53.159Z,70.23
2018-03-15T20:16:23.155Z,70.59
2018-03-15T20:18:52.634Z,70.67
2018-03-15T20:21:21.832Z,70.90
2018-03-15T20:37:17.532Z,70.79
2018-03-15T20:39:52.384Z,71.11
2018-03-15T20:42:21.703Z,71.08
2018-03-15T20:44:51.719Z,71.17
2018-03-15T20:47:27.248Z,71.16
2018-03-15T20:49:57.283Z,71.19
2018-03-15T20:52:27.291Z,71.36
2018-03-15T20:54:56.491Z,71.43
2018-03-15T20:57:26.487Z,71.52
2018-03-15T20:59:55.684Z,71.84
2018-03-15T21:02:24.896Z,71.97
2018-03-15T21:04:54.148Z,72.08
2018-03-15T21:07:23.489Z,72.17
2018-03-15T21:09:53.507Z,72.36
2018-03-15T21:12:22.731Z,72.14
2018-03-15T21:14:52.078Z,72.51
2018-03-15T21:17:21.332Z,72.43
2018-03-15T21:19:51.314Z,72.48
2018-03-15T21:22:20.571Z,72.94
2018-03-15T21:24:50.026Z,73.49
2018-03-15T21:27:20.096Z,73.15
2018-03-15T21:29:49.328Z,73.82
2018-03-15T21:32:18.560Z,74.86
2018-03-15T21:34:48.562Z,75.29
2018-03-15T21:37:18.554Z,75.69
2018-03-15T21:39:47.759Z,75.70
2018-03-15T21:42:16.985Z,77.43
2018-03-15T21:44:46.943Z,77.31
2018-03-15T21:47:16.193Z,77.70
2018-03-15T21:49:46.168Z,77.53
2018-03-15T21:52:15.376Z,77.63
2018-03-15T21:54:44.615Z,78.94
2018-03-15T21:57:13.982Z,79.41
2018-03-15T21:59:43.189Z,80.62
2018-03-15T22:02:13.168Z,81.33
2018-03-15T22:04:42.451Z,81.66
2018-03-15T22:07:12.088Z,81.73
2018-03-15T22:09:41.380Z,81.61
2018-03-15T22:12:10.592Z,81.66
2018-03-15T22:14:39.816Z,81.89
2018-03-15T22:17:09.825Z,82.84
2018-03-15T22:19:39.013Z,83.41
2018-03-15T22:22:09.040Z,84.25
2018-03-15T22:24:39.120Z,84.50
2018-03-15T22:27:08.394Z,84.84
2018-03-15T22:29:37.595Z,85.14
2018-03-15T22:32:06.871Z,85.03
2018-03-15T22:34:36.101Z,85.45
2018-03-15T22:37:05.378Z,85.73
2018-03-15T22:39:34.608Z,85.77
2018-03-15T22:42:03.797Z,85.82
2018-03-15T22:44:33.019Z,86.07
2018-03-15T22:47:02.222Z,86.26
2018-03-15T22:49:31.444Z,87.01
2018-03-15T22:52:01.453Z,87.84
2018-03-15T22:54:31.426Z,87.29
2018-03-15T22:57:00.675Z,87.33
2018-03-15T22:59:30.127Z,88.07
2018-03-15T23:01:59.380Z,87.61
2018-03-15T23:04:29.382Z,88.12
2018-03-15T23:06:59.383Z,88.02
2018-03-15T23:09:28.583Z,88.49
2018-03-15T23:11:57.879Z,88.25
2018-03-15T23:14:27.090Z,88.59
2018-03-15T23:16:56.360Z,88.74
2018-03-15T23:19:25.597Z,88.40
2018-03-15T23:21:54.791Z,88.83
2018-03-15T23:24:24.229Z,88.57
2018-03-15T23:26:54.135Z,89.24
2018-03-15T23:29:23.362Z,89.28
2018-03-15T23:31:52.615Z,87.92
2018-03-15T23:34:22.685Z,87.92
2018-03-15T23:36:52.247Z,87.89
2018-03-15T23:39:21.406Z,88.68
2018-03-15T23:41:50.611Z,88.68
2018-03-15T23:44:20.611Z,88.87
2018-03-15T23:46:49.881Z,88.95
2018-03-15T23:49:19.071Z,88.31
2018-03-15T23:51:48.256Z,89.00
2018-03-15T23:54:17.546Z,89.00
2018-03-15T23:56:46.746Z,88.76
2018-03-15T23:59:16.015Z,88.87
